createdAt,value
2018-07-17T00:00:53.061Z,26.35
2018-07-17T00:01:53.158Z,26.27
2018-07-17T00:02:53.157Z,26.16
2018-07-17T00:03:53.731Z,26.19
2018-07-17T00:04:53.393Z,26.22
2018-07-17T00:05:53.071Z,26.19
2018-07-17T00:06:53.094Z,26.17
2018-07-17T00:07:53.076Z,26.17
2018-07-17T00:08:53.347Z,26.15
2018-07-17T00:09:53.172Z,26.20
2018-07-17T00:10:53.010Z,26.19
2018-07-17T00:11:52.915Z,26.07
2018-07-17T00:12:52.982Z,26.09
2018-07-17T00:13:52.795Z,26.11
2018-07-17T00:14:53.053Z,26.07
2018-07-17T00:15:52.739Z,26.09
2018-07-17T00:16:52.677Z,26.09
2018-07-17T00:17:52.648Z,26.12
2018-07-17T00:18:52.614Z,26.07
2018-07-17T00:19:52.640Z,26.03
2018-07-17T00:20:52.764Z,26.07
2018-07-17T00:21:52.539Z,26.09
2018-07-17T00:22:52.522Z,26.09
2018-07-17T00:23:52.495Z,26.07
2018-07-17T00:24:52.494Z,25.99
2018-07-17T00:25:52.449Z,26.00
2018-07-17T00:26:52.666Z,25.88
2018-07-17T00:27:52.380Z,25.99
2018-07-17T00:28:52.371Z,26.00
2018-07-17T00:29:52.347Z,25.93
2018-07-17T00:30:52.826Z,25.89
2018-07-17T00:31:52.321Z,25.89
2018-07-17T00:32:52.456Z,25.91
2018-07-17T00:33:52.242Z,25.89
2018-07-17T00:34:52.414Z,25.88
2018-07-17T00:35:52.225Z,25.85
2018-07-17T00:36:52.174Z,25.89
2018-07-17T00:37:52.332Z,25.91
2018-07-17T00:38:52.117Z,25.84
2018-07-17T00:39:52.084Z,25.88
2018-07-17T00:40:52.067Z,25.82
2018-07-17T00:41:52.091Z,25.81
2018-07-17T00:42:52.322Z,25.78
2018-07-17T00:43:52.031Z,25.70
2018-07-17T00:44:51.951Z,25.69
2018-07-17T00:45:51.969Z,25.64
2018-07-17T00:46:51.950Z,25.71
2018-07-17T00:47:52.080Z,25.66
2018-07-17T00:48:51.880Z,25.66
2018-07-17T00:49:51.840Z,25.56
2018-07-17T00:50:51.917Z,25.51
2018-07-17T00:51:51.793Z,25.62
2018-07-17T00:52:52.033Z,25.63
2018-07-17T00:53:51.753Z,25.54
2018-07-17T00:54:51.755Z,25.52
2018-07-17T00:55:51.704Z,25.56
2018-07-17T00:56:51.731Z,25.57
2018-07-17T00:57:51.845Z,25.63
2018-07-17T00:58:51.624Z,25.56
2018-07-17T00:59:51.619Z,25.54
2018-07-17T01:00:51.582Z,25.54
2018-07-17T01:01:51.620Z,25.56
2018-07-17T01:02:51.525Z,25.60
2018-07-17T01:03:51.696Z,25.49
2018-07-17T01:04:51.476Z,25.51
2018-07-17T01:05:51.448Z,25.49
2018-07-17T01:06:51.445Z,25.49
2018-07-17T01:07:51.938Z,25.51
2018-07-17T01:08:51.448Z,25.48
2018-07-17T01:09:51.542Z,25.48
2018-07-17T01:10:51.323Z,25.49
2018-07-17T01:11:51.322Z,25.60
2018-07-17T01:12:51.274Z,25.59
2018-07-17T01:13:51.272Z,25.54
2018-07-17T01:14:51.304Z,25.57
2018-07-17T01:15:51.497Z,25.56
2018-07-17T01:16:51.294Z,25.42
2018-07-17T01:17:51.181Z,25.47
2018-07-17T01:18:51.224Z,25.44
2018-07-17T01:19:51.081Z,25.37
2018-07-17T01:20:51.263Z,25.47
2018-07-17T01:21:51.042Z,25.47
2018-07-17T01:22:51.009Z,25.42
2018-07-17T01:23:51.015Z,25.47
2018-07-17T01:24:50.971Z,25.49
2018-07-17T01:25:51.132Z,25.42
2018-07-17T01:26:51.444Z,25.41
2018-07-17T01:27:51.423Z,25.32
2018-07-17T01:28:50.857Z,25.34
2018-07-17T01:29:50.829Z,25.30
2018-07-17T01:30:51.073Z,25.32
2018-07-17T01:31:50.760Z,25.32
2018-07-17T01:32:50.749Z,25.33
2018-07-17T01:33:50.739Z,25.34
2018-07-17T01:34:50.680Z,25.29
2018-07-17T01:35:50.724Z,25.23
2018-07-17T01:36:51.318Z,25.20
2018-07-17T01:37:50.659Z,25.11
2018-07-17T01:38:50.605Z,25.23
2018-07-17T01:39:50.568Z,25.26
2018-07-17T01:40:50.556Z,25.19
2018-07-17T01:41:50.779Z,25.19
2018-07-17T01:42:50.663Z,25.08
2018-07-17T01:43:50.455Z,25.15
2018-07-17T01:44:50.449Z,25.22
2018-07-17T01:45:50.403Z,25.17
2018-07-17T01:46:50.439Z,25.19
2018-07-17T01:47:50.399Z,25.12
2018-07-17T01:48:50.392Z,25.07
2018-07-17T01:49:50.857Z,25.12
2018-07-17T01:50:50.322Z,25.04
2018-07-17T01:51:50.770Z,25.04
2018-07-17T01:52:50.246Z,25.11
2018-07-17T01:53:50.363Z,25.08
2018-07-17T01:54:50.501Z,25.01
2018-07-17T01:55:50.204Z,25.02
2018-07-17T01:56:50.689Z,25.07
2018-07-17T01:57:50.205Z,25.09
2018-07-17T01:58:50.175Z,25.04
2018-07-17T01:59:50.156Z,25.11
2018-07-17T02:00:50.046Z,25.15
2018-07-17T02:01:50.014Z,25.17
2018-07-17T02:02:50.010Z,25.12
2018-07-17T02:03:50.039Z,25.09
2018-07-17T02:04:50.524Z,25.07
2018-07-17T02:05:49.912Z,25.05
2018-07-17T02:06:49.864Z,24.97
2018-07-17T02:07:49.829Z,25.05
2018-07-17T02:08:50.457Z,25.02
2018-07-17T02:09:49.918Z,25.02
2018-07-17T02:10:49.773Z,25.00
2018-07-17T02:11:49.737Z,25.05
2018-07-17T02:12:49.818Z,25.12
2018-07-17T02:13:49.768Z,25.02
2018-07-17T02:14:49.799Z,25.11
2018-07-17T02:15:49.679Z,25.11
2018-07-17T02:16:49.629Z,25.04
2018-07-17T02:17:49.689Z,25.05
2018-07-17T02:18:49.644Z,25.00
2018-07-17T02:19:49.750Z,25.04
2018-07-17T02:20:49.509Z,25.08
2018-07-17T02:21:49.934Z,24.96
2018-07-17T02:22:50.017Z,25.00
2018-07-17T02:23:49.969Z,25.00
2018-07-17T02:24:49.951Z,25.02
2018-07-17T02:25:49.899Z,25.00
2018-07-17T02:26:49.354Z,24.97
2018-07-17T02:27:49.630Z,25.02
2018-07-17T02:28:49.400Z,24.97
2018-07-17T02:29:49.294Z,25.01
2018-07-17T02:30:49.518Z,25.01
2018-07-17T02:31:49.326Z,24.94
2018-07-17T02:32:49.215Z,24.97
2018-07-17T02:33:49.283Z,25.00
2018-07-17T02:34:49.205Z,24.89
2018-07-17T02:35:49.423Z,24.90
2018-07-17T02:36:49.585Z,24.97
2018-07-17T02:37:49.073Z,24.87
2018-07-17T02:38:49.342Z,24.94
2018-07-17T02:39:49.038Z,24.87
2018-07-17T02:40:48.998Z,24.78
2018-07-17T02:41:49.065Z,24.77
2018-07-17T02:42:49.042Z,24.82
2018-07-17T02:43:49.025Z,24.77
2018-07-17T02:44:48.871Z,24.75
2018-07-17T02:45:48.891Z,24.82
2018-07-17T02:46:48.887Z,24.78
2018-07-17T02:47:48.928Z,24.82
2018-07-17T02:48:48.808Z,24.82
2018-07-17T02:49:48.821Z,24.71
2018-07-17T02:50:48.760Z,24.75
2018-07-17T02:51:48.714Z,24.80
2018-07-17T02:52:48.737Z,24.74
2018-07-17T02:53:48.777Z,24.75
2018-07-17T02:54:48.685Z,24.83
2018-07-17T02:55:48.605Z,24.86
2018-07-17T02:56:48.613Z,24.82
2018-07-17T02:57:49.290Z,24.80
2018-07-17T02:58:48.544Z,24.82
2018-07-17T02:59:48.593Z,24.75
2018-07-17T03:00:48.567Z,24.70
2018-07-17T03:01:48.472Z,24.78
2018-07-17T03:02:48.433Z,24.74
2018-07-17T03:03:49.106Z,24.77
2018-07-17T03:04:48.911Z,24.70
2018-07-17T03:05:49.797Z,24.70
2018-07-17T03:06:48.592Z,24.67
2018-07-17T03:07:48.374Z,24.63
2018-07-17T03:08:48.290Z,24.58
2018-07-17T03:09:48.352Z,24.59
2018-07-17T03:10:48.282Z,24.59
2018-07-17T03:11:48.729Z,24.59
2018-07-17T03:12:48.252Z,24.56
2018-07-17T03:13:48.156Z,24.64
2018-07-17T03:14:48.091Z,24.64
2018-07-17T03:15:48.164Z,24.55
2018-07-17T03:16:48.083Z,24.59
2018-07-17T03:17:48.097Z,24.56
2018-07-17T03:18:48.113Z,24.61
2018-07-17T03:19:48.152Z,24.67
2018-07-17T03:20:48.061Z,24.63
2018-07-17T03:21:48.086Z,24.59
2018-07-17T03:22:47.883Z,24.58
2018-07-17T03:23:47.942Z,24.52
2018-07-17T03:24:47.877Z,24.63
2018-07-17T03:25:47.802Z,24.59
2018-07-17T03:26:47.849Z,24.51
2018-07-17T03:27:47.845Z,24.58
2018-07-17T03:28:47.724Z,24.48
2018-07-17T03:29:47.718Z,24.51
2018-07-17T03:30:47.678Z,24.48
2018-07-17T03:31:47.713Z,24.44
2018-07-17T03:32:47.705Z,24.45
2018-07-17T03:33:47.638Z,24.46
2018-07-17T03:34:47.860Z,24.48
2018-07-17T03:35:47.555Z,24.48
2018-07-17T03:36:47.518Z,24.51
2018-07-17T03:37:47.609Z,24.48
2018-07-17T03:38:47.657Z,24.45
2018-07-17T03:39:47.513Z,24.36
2018-07-17T03:40:47.460Z,24.49
2018-07-17T03:41:47.522Z,24.51
2018-07-17T03:42:47.371Z,24.44
2018-07-17T03:43:47.335Z,24.39
2018-07-17T03:44:47.416Z,24.40
2018-07-17T03:45:47.285Z,24.46
2018-07-17T03:46:47.244Z,24.51
2018-07-17T03:47:47.234Z,24.44
2018-07-17T03:48:47.274Z,24.52
2018-07-17T03:49:47.287Z,24.56
2018-07-17T03:50:47.150Z,24.51
2018-07-17T03:51:47.643Z,24.51
2018-07-17T03:52:47.142Z,24.49
2018-07-17T03:53:47.184Z,24.51
2018-07-17T03:54:47.093Z,24.48
2018-07-17T03:55:47.154Z,24.46
2018-07-17T03:56:47.284Z,24.58
2018-07-17T03:57:46.968Z,24.66
2018-07-17T03:58:47.153Z,24.55
2018-07-17T03:59:46.896Z,24.46
2018-07-17T04:00:47.023Z,24.45
2018-07-17T04:01:47.046Z,24.51
2018-07-17T04:02:46.918Z,24.49
2018-07-17T04:03:46.871Z,24.45
2018-07-17T04:04:47.075Z,24.49
2018-07-17T04:05:46.920Z,24.49
2018-07-17T04:06:46.734Z,24.54
2018-07-17T04:07:46.824Z,24.54
2018-07-17T04:08:46.834Z,24.54
2018-07-17T04:09:46.918Z,24.49
2018-07-17T04:10:46.769Z,24.54
2018-07-17T04:11:46.606Z,24.46
2018-07-17T04:12:46.616Z,24.51
2018-07-17T04:13:46.532Z,24.48
2018-07-17T04:14:46.506Z,24.48
2018-07-17T04:15:46.780Z,24.56
2018-07-17T04:16:46.872Z,24.56
2018-07-17T04:17:46.647Z,24.49
2018-07-17T04:18:46.507Z,24.44
2018-07-17T04:19:46.454Z,24.44
2018-07-17T04:20:46.368Z,24.40
2018-07-17T04:21:46.673Z,24.49
2018-07-17T04:22:46.307Z,24.48
2018-07-17T04:23:46.260Z,24.51
2018-07-17T04:24:46.275Z,24.44
2018-07-17T04:25:46.269Z,24.52
2018-07-17T04:26:46.366Z,24.44
2018-07-17T04:27:46.242Z,24.44
2018-07-17T04:28:47.632Z,24.45
2018-07-17T04:29:46.142Z,24.48
2018-07-17T04:30:46.395Z,24.44
2018-07-17T04:31:46.084Z,24.54
2018-07-17T04:32:46.108Z,24.52
2018-07-17T04:33:46.011Z,24.52
2018-07-17T04:34:45.974Z,24.54
2018-07-17T04:35:45.997Z,24.49
2018-07-17T04:36:45.941Z,24.56
2018-07-17T04:37:45.933Z,24.59
2018-07-17T04:38:45.977Z,24.55
2018-07-17T04:39:45.852Z,24.54
2018-07-17T04:40:45.814Z,24.58
2018-07-17T04:41:45.776Z,24.63
2018-07-17T04:42:45.882Z,24.63
2018-07-17T04:43:46.026Z,24.61
2018-07-17T04:44:45.734Z,24.67
2018-07-17T04:45:45.994Z,24.58
2018-07-17T04:46:45.771Z,24.54
2018-07-17T04:47:45.829Z,24.49
2018-07-17T04:48:45.602Z,24.54
2018-07-17T04:49:45.646Z,24.39
2018-07-17T04:50:45.655Z,24.49
2018-07-17T04:51:45.534Z,24.49
2018-07-17T04:52:45.616Z,24.46
2018-07-17T04:53:45.571Z,24.52
2018-07-17T04:54:45.601Z,24.44
2018-07-17T04:55:45.489Z,24.45
2018-07-17T04:56:45.494Z,24.42
2018-07-17T04:57:45.551Z,24.36
2018-07-17T04:58:45.647Z,24.34
2018-07-17T04:59:45.458Z,24.33
2018-07-17T05:00:46.011Z,24.36
2018-07-17T05:01:45.395Z,24.44
2018-07-17T05:02:45.449Z,24.40
2018-07-17T05:03:45.344Z,24.34
2018-07-17T05:04:45.547Z,24.30
2018-07-17T05:05:45.494Z,24.30
2018-07-17T05:06:45.344Z,24.32
2018-07-17T05:07:45.251Z,24.19
2018-07-17T05:08:45.348Z,24.29
2018-07-17T05:09:45.410Z,24.27
2018-07-17T05:10:45.445Z,24.26
2018-07-17T05:11:45.041Z,24.19
2018-07-17T05:12:44.990Z,24.30
2018-07-17T05:13:45.052Z,24.24
2018-07-17T05:14:44.978Z,24.24
2018-07-17T05:15:44.999Z,24.26
2018-07-17T05:16:45.069Z,24.17
2018-07-17T05:17:44.987Z,24.08
2018-07-17T05:18:44.978Z,24.14
2018-07-17T05:19:45.039Z,24.12
2018-07-17T05:20:45.092Z,24.14
2018-07-17T05:21:45.214Z,24.04
2018-07-17T05:22:44.975Z,24.08
2018-07-17T05:23:44.873Z,24.04
2018-07-17T05:24:44.806Z,24.15
2018-07-17T05:25:44.815Z,24.03
2018-07-17T05:26:44.966Z,24.02
2018-07-17T05:27:44.733Z,24.09
2018-07-17T05:28:44.623Z,24.08
2018-07-17T05:29:44.779Z,24.07
2018-07-17T05:30:44.659Z,24.09
2018-07-17T05:31:44.454Z,24.03
2018-07-17T05:32:44.545Z,24.11
2018-07-17T05:33:44.439Z,24.11
2018-07-17T05:34:44.451Z,24.09
2018-07-17T05:35:44.364Z,24.11
2018-07-17T05:36:44.410Z,24.04
2018-07-17T05:37:44.319Z,24.09
2018-07-17T05:38:44.373Z,24.07
2018-07-17T05:39:44.282Z,23.96
2018-07-17T05:40:44.295Z,23.97
2018-07-17T05:41:44.194Z,23.96
2018-07-17T05:42:44.274Z,24.03
2018-07-17T05:43:44.249Z,24.07
2018-07-17T05:44:44.224Z,24.04
2018-07-17T05:45:44.171Z,24.09
2018-07-17T05:46:44.055Z,24.17
2018-07-17T05:47:44.034Z,24.09
2018-07-17T05:48:44.032Z,24.15
2018-07-17T05:49:44.149Z,24.07
2018-07-17T05:50:43.946Z,24.08
2018-07-17T05:51:43.943Z,24.07
2018-07-17T05:52:43.958Z,24.03
2018-07-17T05:53:43.871Z,24.04
2018-07-17T05:54:44.000Z,23.99
2018-07-17T05:55:43.837Z,23.96
2018-07-17T05:56:43.895Z,23.99
2018-07-17T05:57:43.837Z,23.97
2018-07-17T05:58:43.748Z,23.97
2018-07-17T05:59:44.079Z,24.08
2018-07-17T06:00:43.828Z,24.04
2018-07-17T06:01:45.444Z,24.07
2018-07-17T06:02:43.716Z,24.09
2018-07-17T06:03:43.593Z,24.12
2018-07-17T06:04:43.678Z,24.08
2018-07-17T06:05:43.549Z,24.07
2018-07-17T06:06:43.533Z,24.21
2018-07-17T06:07:43.484Z,24.17
2018-07-17T06:08:43.471Z,24.21
2018-07-17T06:09:43.527Z,24.26
2018-07-17T06:10:43.470Z,24.24
2018-07-17T06:11:43.427Z,24.26
2018-07-17T06:12:43.380Z,24.26
2018-07-17T06:13:43.349Z,24.21
2018-07-17T06:14:43.346Z,24.19
2018-07-17T06:15:43.324Z,24.15
2018-07-17T06:16:43.397Z,24.07
2018-07-17T06:17:43.282Z,24.22
2018-07-17T06:18:43.277Z,24.17
2018-07-17T06:19:43.189Z,24.12
2018-07-17T06:20:43.166Z,24.12
2018-07-17T06:21:43.158Z,24.08
2018-07-17T06:22:43.117Z,24.09
2018-07-17T06:23:43.068Z,24.14
2018-07-17T06:24:43.040Z,24.09
2018-07-17T06:25:43.023Z,24.15
2018-07-17T06:26:43.079Z,24.04
2018-07-17T06:27:42.966Z,24.07
2018-07-17T06:28:42.936Z,24.07
2018-07-17T06:29:42.910Z,24.12
2018-07-17T06:30:42.922Z,24.07
2018-07-17T06:31:42.942Z,24.04
2018-07-17T06:32:42.827Z,24.11
2018-07-17T06:33:42.789Z,24.08
2018-07-17T06:34:42.764Z,24.04
2018-07-17T06:35:42.732Z,24.08
2018-07-17T06:36:42.811Z,24.04
2018-07-17T06:37:42.705Z,24.15
2018-07-17T06:38:42.680Z,24.12
2018-07-17T06:39:42.645Z,24.11
2018-07-17T06:40:42.626Z,24.15
2018-07-17T06:41:42.674Z,24.09
2018-07-17T06:42:42.570Z,24.11
2018-07-17T06:43:42.534Z,24.03
2018-07-17T06:44:42.619Z,24.08
2018-07-17T06:45:42.510Z,24.09
2018-07-17T06:46:42.441Z,24.08
2018-07-17T06:47:42.523Z,23.97
2018-07-17T06:48:42.385Z,24.08
2018-07-17T06:49:42.372Z,24.11
2018-07-17T06:50:42.386Z,24.07
2018-07-17T06:51:42.307Z,24.03
2018-07-17T06:52:42.288Z,24.19
2018-07-17T06:53:42.346Z,24.15
2018-07-17T06:54:42.233Z,24.03
2018-07-17T06:55:42.204Z,24.11
2018-07-17T06:56:42.189Z,24.15
2018-07-17T06:57:42.143Z,24.12
2018-07-17T06:58:42.218Z,24.15
2018-07-17T06:59:42.107Z,24.15
2018-07-17T07:00:42.065Z,24.12
2018-07-17T07:01:42.048Z,24.18
2018-07-17T07:02:42.010Z,24.21
2018-07-17T07:03:42.087Z,24.22
2018-07-17T07:04:41.967Z,24.26
2018-07-17T07:05:41.938Z,24.22
2018-07-17T07:06:41.910Z,24.22
2018-07-17T07:07:41.886Z,24.29
2018-07-17T07:08:41.967Z,24.36
2018-07-17T07:09:41.820Z,24.30
2018-07-17T07:10:41.819Z,24.32
2018-07-17T07:11:41.798Z,24.34
2018-07-17T07:12:41.757Z,24.36
2018-07-17T07:13:41.790Z,24.36
2018-07-17T07:14:41.709Z,24.34
2018-07-17T07:15:41.688Z,24.36
2018-07-17T07:16:41.656Z,24.49
2018-07-17T07:17:41.628Z,24.51
2018-07-17T07:18:41.926Z,24.40
2018-07-17T07:19:41.568Z,24.46
2018-07-17T07:20:41.561Z,24.48
2018-07-17T07:21:41.517Z,24.46
2018-07-17T07:22:41.479Z,24.51
2018-07-17T07:23:41.461Z,24.40
2018-07-17T07:24:41.530Z,24.45
2018-07-17T07:25:41.413Z,24.44
2018-07-17T07:26:41.362Z,24.49
2018-07-17T07:27:41.375Z,24.49
2018-07-17T07:28:41.333Z,24.49
2018-07-17T07:29:41.322Z,24.52
2018-07-17T07:30:41.364Z,24.55
2018-07-17T07:31:41.328Z,24.59
2018-07-17T07:32:41.299Z,24.51
2018-07-17T07:33:41.263Z,24.46
2018-07-17T07:34:41.307Z,24.71
2018-07-17T07:35:41.390Z,24.63
2018-07-17T07:36:41.261Z,24.59
2018-07-17T07:37:41.223Z,24.64
2018-07-17T07:38:41.125Z,24.64
2018-07-17T07:39:41.215Z,24.64
2018-07-17T07:40:41.201Z,24.59
2018-07-17T07:41:41.122Z,24.66
2018-07-17T07:42:41.082Z,24.59
2018-07-17T07:43:41.125Z,24.55
2018-07-17T07:44:41.083Z,24.49
2018-07-17T07:45:41.269Z,24.52
2018-07-17T07:46:41.027Z,24.45
2018-07-17T07:47:41.007Z,24.46
2018-07-17T07:48:41.026Z,24.51
2018-07-17T07:49:40.922Z,24.42
2018-07-17T07:50:40.998Z,24.48
2018-07-17T07:51:40.824Z,24.44
2018-07-17T07:52:40.835Z,24.49
2018-07-17T07:53:40.656Z,24.56
2018-07-17T07:54:40.611Z,24.48
2018-07-17T07:55:40.657Z,24.44
2018-07-17T07:56:40.677Z,24.44
2018-07-17T07:57:40.549Z,24.39
2018-07-17T07:58:40.521Z,24.37
2018-07-17T07:59:40.483Z,24.37
2018-07-17T08:00:40.476Z,24.46
2018-07-17T08:01:40.428Z,24.45
2018-07-17T08:02:40.519Z,24.48
2018-07-17T08:03:40.461Z,24.52
2018-07-17T08:04:40.432Z,24.51
2018-07-17T08:05:40.325Z,24.46
2018-07-17T08:06:40.329Z,24.56
2018-07-17T08:07:40.275Z,24.49
2018-07-17T08:08:40.429Z,24.45
2018-07-17T08:09:40.216Z,24.52
2018-07-17T08:10:40.201Z,24.56
2018-07-17T08:11:40.242Z,24.48
2018-07-17T08:12:40.193Z,24.49
2018-07-17T08:13:40.240Z,24.55
2018-07-17T08:14:40.120Z,24.59
2018-07-17T08:15:40.079Z,24.69
2018-07-17T08:16:40.044Z,24.66
2018-07-17T08:17:40.003Z,24.56
2018-07-17T08:18:40.033Z,24.58
2018-07-17T08:19:39.964Z,24.58
2018-07-17T08:20:39.941Z,24.49
2018-07-17T08:21:39.914Z,24.54
2018-07-17T08:22:39.896Z,24.51
2018-07-17T08:23:39.899Z,24.46
2018-07-17T08:24:39.829Z,24.61
2018-07-17T08:25:39.794Z,24.64
2018-07-17T08:26:39.766Z,24.55
2018-07-17T08:27:39.747Z,24.55
2018-07-17T08:28:39.759Z,24.52
2018-07-17T08:29:39.741Z,24.48
2018-07-17T08:30:39.656Z,24.52
2018-07-17T08:31:39.638Z,24.52
2018-07-17T08:32:39.617Z,24.48
2018-07-17T08:33:39.578Z,24.49
2018-07-17T08:34:39.601Z,24.48
2018-07-17T08:35:39.548Z,24.48
2018-07-17T08:36:39.509Z,24.45
2018-07-17T08:37:39.475Z,24.46
2018-07-17T08:38:39.449Z,24.48
2018-07-17T08:39:39.412Z,24.45
2018-07-17T08:40:39.438Z,24.44
2018-07-17T08:41:39.369Z,24.51
2018-07-17T08:42:39.359Z,24.44
2018-07-17T08:43:39.341Z,24.54
2018-07-17T08:44:39.282Z,24.45
2018-07-17T08:45:39.257Z,24.54
2018-07-17T08:46:39.290Z,24.45
2018-07-17T08:47:39.216Z,24.49
2018-07-17T08:48:39.192Z,24.44
2018-07-17T08:49:39.143Z,24.51
2018-07-17T08:50:39.131Z,24.54
2018-07-17T08:51:39.162Z,24.51
2018-07-17T08:52:39.092Z,24.45
2018-07-17T08:53:39.035Z,24.52
2018-07-17T08:54:39.092Z,24.54
2018-07-17T08:55:38.986Z,24.52
2018-07-17T08:56:39.074Z,24.49
2018-07-17T08:57:38.926Z,24.51
2018-07-17T08:58:38.896Z,24.54
2018-07-17T08:59:38.887Z,24.58
2018-07-17T09:00:38.865Z,24.49
2018-07-17T09:01:38.934Z,24.48
2018-07-17T09:02:38.807Z,24.46
2018-07-17T09:03:38.826Z,24.55
2018-07-17T09:04:38.749Z,24.52
2018-07-17T09:05:38.718Z,24.51
2018-07-17T09:06:38.695Z,24.49
2018-07-17T09:07:38.721Z,24.54
2018-07-17T09:08:38.640Z,24.52
2018-07-17T09:09:38.620Z,24.58
2018-07-17T09:10:38.606Z,24.51
2018-07-17T09:11:38.561Z,24.45
2018-07-17T09:12:38.581Z,24.51
2018-07-17T09:13:38.507Z,24.48
2018-07-17T09:14:38.491Z,24.49
2018-07-17T09:15:38.479Z,24.55
2018-07-17T09:16:38.423Z,24.55
2018-07-17T09:17:38.392Z,24.64
2018-07-17T09:18:38.473Z,24.55
2018-07-17T09:19:38.359Z,24.55
2018-07-17T09:20:38.330Z,24.58
2018-07-17T09:21:38.419Z,24.55
2018-07-17T09:22:38.264Z,24.49
2018-07-17T09:23:38.233Z,24.55
2018-07-17T09:24:38.290Z,24.51
2018-07-17T09:25:38.199Z,24.46
2018-07-17T09:26:38.155Z,24.58
2018-07-17T09:27:38.164Z,24.56
2018-07-17T09:28:38.122Z,24.48
2018-07-17T09:29:38.191Z,24.51
2018-07-17T09:30:38.067Z,24.49
2018-07-17T09:31:38.048Z,24.42
2018-07-17T09:32:38.050Z,24.48
2018-07-17T09:33:38.133Z,24.52
2018-07-17T09:34:38.045Z,24.48
2018-07-17T09:35:37.958Z,24.52
2018-07-17T09:36:37.906Z,24.58
2018-07-17T09:37:37.890Z,24.49
2018-07-17T09:38:37.855Z,24.58
2018-07-17T09:39:37.824Z,24.48
2018-07-17T09:40:37.845Z,24.51
2018-07-17T09:41:37.781Z,24.44
2018-07-17T09:42:37.751Z,24.48
2018-07-17T09:43:37.715Z,24.48
2018-07-17T09:44:37.700Z,24.46
2018-07-17T09:45:37.755Z,24.55
2018-07-17T09:46:37.645Z,24.55
2018-07-17T09:47:37.622Z,24.51
2018-07-17T09:48:37.612Z,24.52
2018-07-17T09:49:37.545Z,24.55
2018-07-17T09:50:37.626Z,24.52
2018-07-17T09:51:37.510Z,24.51
2018-07-17T09:52:37.476Z,24.52
2018-07-17T09:53:37.452Z,24.51
2018-07-17T09:54:37.419Z,24.52
2018-07-17T09:55:37.381Z,24.49
2018-07-17T09:56:37.405Z,24.46
2018-07-17T09:57:37.332Z,24.54
2018-07-17T09:58:37.309Z,24.46
2018-07-17T09:59:37.297Z,24.46
2018-07-17T10:00:37.267Z,24.55
2018-07-17T10:01:37.345Z,24.52
2018-07-17T10:02:37.192Z,24.56
2018-07-17T10:03:37.179Z,24.51
2018-07-17T10:04:37.201Z,24.51
2018-07-17T10:05:37.133Z,24.45
2018-07-17T10:06:37.200Z,24.42
2018-07-17T10:07:37.078Z,24.46
2018-07-17T10:08:37.056Z,24.49
2018-07-17T10:09:37.116Z,24.49
2018-07-17T10:10:36.985Z,24.54
2018-07-17T10:11:37.053Z,24.46
2018-07-17T10:12:36.931Z,24.48
2018-07-17T10:13:36.927Z,24.58
2018-07-17T10:14:37.001Z,24.56
2018-07-17T10:15:36.860Z,24.63
2018-07-17T10:16:36.840Z,24.58
2018-07-17T10:17:36.905Z,24.51
2018-07-17T10:18:36.781Z,24.58
2018-07-17T10:19:36.753Z,24.51
2018-07-17T10:20:36.750Z,24.51
2018-07-17T10:21:36.687Z,24.46
2018-07-17T10:22:36.708Z,24.52
2018-07-17T10:23:36.655Z,24.46
2018-07-17T10:24:36.608Z,24.48
2018-07-17T10:25:36.602Z,24.52
2018-07-17T10:26:36.634Z,24.46
2018-07-17T10:27:36.605Z,24.58
2018-07-17T10:28:36.510Z,24.51
2018-07-17T10:29:36.502Z,24.45
2018-07-17T10:30:36.474Z,24.45
2018-07-17T10:31:36.435Z,24.51
2018-07-17T10:32:36.401Z,24.46
2018-07-17T10:33:36.470Z,24.45
2018-07-17T10:34:36.348Z,24.45
2018-07-17T10:35:36.317Z,24.49
2018-07-17T10:36:36.306Z,24.40
2018-07-17T10:37:36.270Z,24.45
2018-07-17T10:38:36.333Z,24.45
2018-07-17T10:39:36.316Z,24.39
2018-07-17T10:40:36.235Z,24.36
2018-07-17T10:41:36.167Z,24.37
2018-07-17T10:42:36.155Z,24.34
2018-07-17T10:43:36.117Z,24.33
2018-07-17T10:44:36.172Z,24.40
2018-07-17T10:45:36.043Z,24.40
2018-07-17T10:46:36.039Z,24.40
2018-07-17T10:47:36.071Z,24.37
2018-07-17T10:48:35.982Z,24.39
2018-07-17T10:49:35.955Z,24.40
2018-07-17T10:50:35.964Z,24.36
2018-07-17T10:51:35.894Z,24.36
2018-07-17T10:52:35.868Z,24.34
2018-07-17T10:53:35.851Z,24.33
2018-07-17T10:54:35.807Z,24.32
2018-07-17T10:55:35.899Z,24.36
2018-07-17T10:56:35.775Z,24.33
2018-07-17T10:57:35.742Z,24.26
2018-07-17T10:58:35.707Z,24.22
2018-07-17T10:59:35.722Z,24.24
2018-07-17T11:00:35.748Z,24.36
2018-07-17T11:01:35.618Z,24.39
2018-07-17T11:02:35.615Z,24.37
2018-07-17T11:03:35.590Z,24.36
2018-07-17T11:04:35.538Z,24.36
2018-07-17T11:05:35.617Z,24.40
2018-07-17T11:06:35.531Z,24.34
2018-07-17T11:07:35.481Z,24.40
2018-07-17T11:08:35.450Z,24.45
2018-07-17T11:09:35.425Z,24.40
2018-07-17T11:10:35.387Z,24.32
2018-07-17T11:11:35.449Z,24.30
2018-07-17T11:12:35.338Z,24.32
2018-07-17T11:13:35.310Z,24.37
2018-07-17T11:14:35.272Z,24.36
2018-07-17T11:15:35.267Z,24.36
2018-07-17T11:16:35.230Z,24.32
2018-07-17T11:17:35.257Z,24.36
2018-07-17T11:18:35.161Z,24.32
2018-07-17T11:19:35.165Z,24.36
2018-07-17T11:20:35.122Z,24.33
2018-07-17T11:21:35.080Z,24.34
2018-07-17T11:22:35.069Z,24.34
2018-07-17T11:23:35.143Z,24.34
2018-07-17T11:24:35.010Z,24.32
2018-07-17T11:25:34.988Z,24.36
2018-07-17T11:26:34.969Z,24.32
2018-07-17T11:27:34.925Z,24.21
2018-07-17T11:28:34.905Z,24.22
2018-07-17T11:29:34.991Z,24.24
2018-07-17T11:30:34.851Z,24.27
2018-07-17T11:31:34.815Z,24.36
2018-07-17T11:32:34.812Z,24.39
2018-07-17T11:33:34.789Z,24.36
2018-07-17T11:34:34.838Z,24.42
2018-07-17T11:35:34.716Z,24.42
2018-07-17T11:36:34.757Z,24.45
2018-07-17T11:37:34.663Z,24.44
2018-07-17T11:38:34.656Z,24.42
2018-07-17T11:39:34.673Z,24.40
2018-07-17T11:40:34.602Z,24.46
2018-07-17T11:41:34.563Z,24.51
2018-07-17T11:42:34.535Z,24.40
2018-07-17T11:43:34.509Z,24.55
2018-07-17T11:44:34.569Z,24.51
2018-07-17T11:45:34.463Z,24.49
2018-07-17T11:46:34.445Z,24.59
2018-07-17T11:47:34.645Z,24.51
2018-07-17T11:48:34.381Z,24.55
2018-07-17T11:49:34.340Z,24.56
2018-07-17T11:50:34.446Z,24.69
2018-07-17T11:51:34.577Z,24.63
2018-07-17T11:52:34.275Z,24.56
2018-07-17T11:53:34.255Z,24.64
2018-07-17T11:54:34.212Z,24.75
2018-07-17T11:55:34.403Z,24.74
2018-07-17T11:56:34.192Z,24.83
2018-07-17T11:57:34.135Z,24.90
2018-07-17T11:58:34.106Z,24.90
2018-07-17T11:59:34.134Z,25.00
2018-07-17T12:00:34.067Z,25.11
2018-07-17T12:01:34.107Z,25.14
2018-07-17T12:02:33.978Z,25.23
2018-07-17T12:03:33.979Z,25.30
2018-07-17T12:04:33.942Z,25.32
2018-07-17T12:05:33.968Z,25.41
2018-07-17T12:06:33.990Z,25.44
2018-07-17T12:07:33.869Z,25.52
2018-07-17T12:08:33.841Z,25.69
2018-07-17T12:09:33.962Z,25.69
2018-07-17T12:10:33.790Z,25.85
2018-07-17T12:11:33.854Z,25.81
2018-07-17T12:12:33.736Z,25.88
2018-07-17T12:13:33.717Z,25.97
2018-07-17T12:14:33.682Z,26.15
2018-07-17T12:15:33.650Z,26.87
2018-07-17T12:16:33.752Z,27.55
2018-07-17T12:17:33.584Z,28.06
2018-07-17T12:18:33.588Z,28.54
2018-07-17T12:19:33.559Z,28.91
2018-07-17T12:20:33.741Z,29.36
2018-07-17T12:21:33.602Z,29.75
2018-07-17T12:22:33.473Z,30.34
2018-07-17T12:23:33.437Z,30.75
2018-07-17T12:24:33.406Z,31.12
2018-07-17T12:25:33.401Z,31.30
2018-07-17T12:26:33.528Z,31.58
2018-07-17T12:27:33.663Z,32.16
2018-07-17T12:28:33.390Z,32.28
2018-07-17T12:29:33.393Z,32.37
2018-07-17T12:30:33.257Z,32.65
2018-07-17T12:31:33.255Z,32.84
2018-07-17T12:32:33.210Z,32.76
2018-07-17T12:33:33.296Z,32.53
2018-07-17T12:34:33.176Z,32.42
2018-07-17T12:35:33.145Z,32.62
2018-07-17T12:36:33.100Z,32.79
2018-07-17T12:37:33.113Z,32.69
2018-07-17T12:38:33.162Z,32.81
2018-07-17T12:39:33.067Z,33.06
2018-07-17T12:40:33.053Z,33.36
2018-07-17T12:41:32.994Z,33.65
2018-07-17T12:42:32.996Z,33.78
2018-07-17T12:43:33.061Z,33.68
2018-07-17T12:44:32.897Z,33.68
2018-07-17T12:45:33.408Z,33.75
2018-07-17T12:46:32.917Z,33.69
2018-07-17T12:47:32.864Z,33.95
2018-07-17T12:48:32.928Z,33.90
2018-07-17T12:49:32.945Z,33.40
2018-07-17T12:50:32.776Z,33.46
2018-07-17T12:51:32.765Z,33.56
2018-07-17T12:52:32.973Z,33.37